Time;durP1;ratioP1;P1;durP2;ratioP2;P2;SDS_P1;SDS_P2;PMS_P1;PMS_P2;Temp;Humidity;BMP_temperature;BMP_pressure;BME280_temperature;BME280_humidity;BME280_pressure;Samples;Min_cycle;Max_cycle;Signal;HPM_P1;HPM_P2
2022/03/20 00:00:30;;;;;;;9.32;6.05;;;;;;;15.59;39.78;98084.22;5113283;28;20114;-26
2022/03/20 00:02:56;;;;;;;8.35;5.88;;;;;;;15.62;39.89;98102.53;5113721;28;20108;-26
2022/03/20 00:05:22;;;;;;;9.73;6.85;;;;;;;15.49;40.03;98095.34;5113291;28;20026;-26
2022/03/20 00:07:48;;;;;;;9.75;6.30;;;;;;;15.48;40.13;98085.59;5095385;28;20024;-26
2022/03/20 00:10:15;;;;;;;10.70;7.13;;;;;;;15.53;40.13;98093.31;5113469;28;20467;-26
2022/03/20 00:12:41;;;;;;;10.45;6.57;;;;;;;15.56;39.97;98098.00;5113408;28;20511;-26
2022/03/20 00:15:08;;;;;;;9.07;6.22;;;;;;;15.54;39.93;98097.59;5113342;28;20027;-26
2022/03/20 00:17:34;;;;;;;9.18;6.30;;;;;;;15.58;39.87;98096.34;5113333;28;20476;-26
2022/03/20 00:20:00;;;;;;;11.43;6.85;;;;;;;15.55;39.90;98096.44;5113248;28;20376;-26
2022/03/20 00:22:27;;;;;;;11.75;7.20;;;;;;;15.51;40.06;98095.69;5113168;28;20026;-26
2022/03/20 00:24:52;;;;;;;12.52;7.03;;;;;;;15.57;40.08;98097.56;5113304;28;20020;-26
2022/03/20 00:27:18;;;;;;;9.18;6.28;;;;;;;15.54;40.04;98092.91;5113510;28;20050;-26
2022/03/20 00:29:44;;;;;;;10.32;6.70;;;;;;;15.52;39.86;98099.97;5113479;28;20471;-26
2022/03/20 00:32:12;;;;;;;11.48;6.75;;;;;;;15.50;40.29;98094.16;5113116;28;20015;-26
2022/03/20 00:34:39;;;;;;;8.60;6.70;;;;;;;15.43;40.29;98095.84;5113327;28;20102;-26
2022/03/20 00:37:08;;;;;;;10.23;6.82;;;;;;;15.44;40.44;98097.38;5114097;28;20030;-26
2022/03/20 00:39:34;;;;;;;11.27;6.60;;;;;;;15.52;40.31;98091.78;5116702;28;20047;-26
2022/03/20 00:42:00;;;;;;;9.90;6.82;;;;;;;15.54;40.01;98090.16;5116634;28;20027;-26
2022/03/20 00:44:26;;;;;;;10.00;6.85;;;;;;;15.51;40.19;98090.22;5116752;28;20472;-26
2022/03/20 00:46:51;;;;;;;10.55;7.10;;;;;;;15.52;40.19;98091.78;5116494;28;20057;-26
2022/03/20 00:49:17;;;;;;;9.77;6.43;;;;;;;15.56;40.23;98087.81;5116810;28;20448;-26
2022/03/20 00:51:44;;;;;;;9.80;6.65;;;;;;;15.51;40.53;98088.25;5116888;28;20016;-26
2022/03/20 00:54:11;;;;;;;10.45;6.80;;;;;;;15.46;40.81;98086.78;5098025;28;20051;-26
2022/03/20 00:56:40;;;;;;;9.98;6.72;;;;;;;15.44;40.29;98091.91;5116734;28;20034;-26
2022/03/20 00:59:06;;;;;;;8.55;6.07;;;;;;;15.43;40.26;98095.06;5116453;28;20034;-26
2022/03/20 01:01:32;;;;;;;9.05;6.75;;;;;;;15.47;40.14;98095.75;5098124;28;20023;-25
2022/03/20 01:03:58;;;;;;;9.35;6.40;;;;;;;15.45;40.12;98096.16;5121000;27;20076;-26
2022/03/20 01:06:24;;;;;;;11.20;6.72;;;;;;;15.44;40.28;98089.19;5136657;27;20402;-26
2022/03/20 01:08:49;;;;;;;9.30;5.97;;;;;;;15.50;39.94;98089.44;5136686;27;20019;-26
2022/03/20 01:11:16;;;;;;;10.50;6.63;;;;;;;15.42;40.04;98083.34;5136824;27;20387;-26
2022/03/20 01:13:43;;;;;;;8.60;6.10;;;;;;;15.44;39.99;98091.13;5136652;27;20023;-26
2022/03/20 01:16:09;;;;;;;9.95;6.07;;;;;;;15.36;40.13;98082.28;5136593;27;20455;-25
2022/03/20 01:18:35;;;;;;;8.60;6.13;;;;;;;15.39;39.74;98084.19;5136424;27;20370;-26
2022/03/20 01:21:00;;;;;;;8.95;5.90;;;;;;;15.38;39.63;98096.31;5135704;27;20027;-26
2022/03/20 01:23:26;;;;;;;10.90;6.72;;;;;;;15.35;39.77;98099.09;5135693;27;20425;-26
2022/03/20 01:25:52;;;;;;;10.50;6.07;;;;;;;15.36;39.43;98097.91;5136403;27;20101;-26
2022/03/20 01:28:19;;;;;;;8.93;6.07;;;;;;;15.42;39.27;98090.78;5135724;27;20080;-26
2022/03/20 01:30:45;;;;;;;8.23;5.90;;;;;;;15.38;39.15;98098.25;5135066;27;20026;-26
2022/03/20 01:33:11;;;;;;;8.23;5.55;;;;;;;15.40;39.00;98088.47;5117848;27;20023;-26
2022/03/20 01:35:36;;;;;;;9.50;6.05;;;;;;;15.40;38.72;98082.22;5136243;27;20023;-26
2022/03/20 01:38:05;;;;;;;9.15;6.03;;;;;;;15.38;38.89;98082.63;5136361;27;20109;-26
2022/03/20 01:40:31;;;;;;;10.48;6.20;;;;;;;15.36;38.81;98087.75;5136246;27;20035;-26
2022/03/20 01:42:58;;;;;;;9.77;6.10;;;;;;;15.31;39.13;98084.72;5136569;27;20025;-26
2022/03/20 01:45:24;;;;;;;8.50;6.00;;;;;;;15.32;38.91;98078.06;5135886;27;20023;-26
2022/03/20 01:47:51;;;;;;;9.05;5.72;;;;;;;15.38;38.71;98077.16;5135790;27;20033;-26
2022/03/20 01:50:19;;;;;;;9.70;5.95;;;;;;;15.40;38.31;98083.00;5136182;27;20382;-25
2022/03/20 01:52:45;;;;;;;7.32;5.53;;;;;;;15.40;38.39;98082.22;5136191;27;20451;-26
2022/03/20 01:55:12;;;;;;;8.55;5.75;;;;;;;15.35;38.30;98083.47;5135576;27;20053;-26
2022/03/20 01:57:39;;;;;;;7.70;6.03;;;;;;;15.34;38.08;98079.19;5135303;27;20413;-26
2022/03/20 02:00:10;;;;;;;9.30;6.07;;;;;;;15.34;38.02;98076.44;5117176;27;20394;-26
2022/03/20 02:02:36;;;;;;;8.75;6.18;;;;;;;15.34;37.67;98076.44;5135870;27;20468;-26
2022/03/20 02:05:02;;;;;;;8.50;5.82;;;;;;;15.34;37.62;98081.91;5135625;27;20053;-27
2022/03/20 02:07:28;;;;;;;9.88;6.10;;;;;;;15.36;37.45;98068.59;5135953;27;20471;-26
2022/03/20 02:09:56;;;;;;;8.25;5.47;;;;;;;15.36;37.42;98079.53;5135905;27;20080;-26
2022/03/20 02:12:21;;;;;;;8.90;5.75;;;;;;;15.34;37.63;98070.97;5135653;27;20026;-26
2022/03/20 02:14:47;;;;;;;9.20;5.78;;;;;;;15.32;37.31;98070.66;5135625;27;20019;-26
2022/03/20 02:17:12;;;;;;;9.43;5.65;;;;;;;15.31;37.42;98069.09;5135430;27;20023;-26
2022/03/20 02:19:39;;;;;;;9.73;5.63;;;;;;;15.30;37.20;98064.81;5117063;27;20057;-26
2022/03/20 02:22:06;;;;;;;10.50;5.90;;;;;;;15.22;37.36;98063.38;5135411;27;20027;-26
2022/03/20 02:24:44;;;;;;;6.28;4.65;;;;;;;15.29;36.99;98066.00;5135362;27;20079;-26
2022/03/20 02:27:16;;;;;;;9.68;5.63;;;;;;;15.34;37.02;98065.50;5135149;27;20027;-26
2022/03/20 02:29:47;;;;;;;9.18;6.13;;;;;;;15.28;36.80;98061.72;5135290;27;20380;-26
2022/03/20 02:32:16;;;;;;;7.82;5.55;;;;;;;15.31;36.73;98066.38;5135152;27;20464;-27
2022/03/20 02:34:45;;;;;;;8.20;5.80;;;;;;;15.36;36.28;98056.91;5116674;27;20046;-26
2022/03/20 02:37:12;;;;;;;8.38;5.43;;;;;;;15.26;36.56;98058.63;5134995;27;20019;-26
2022/03/20 02:39:37;;;;;;;7.32;5.35;;;;;;;15.24;36.44;98055.53;5134981;27;20019;-26
2022/03/20 02:42:07;;;;;;;8.02;5.70;;;;;;;15.24;36.73;98066.47;5134990;27;20030;-26
2022/03/20 02:45:00;;;;;;;8.55;5.78;;;;;;;15.27;36.28;98062.16;5134902;27;20119;-26
2022/03/20 02:47:27;;;;;;;6.80;5.30;;;;;;;15.26;36.02;98068.78;5135015;27;20031;-26
2022/03/20 02:50:03;;;;;;;7.03;5.30;;;;;;;15.24;36.17;98058.28;5134895;27;20027;-26
2022/03/20 02:52:30;;;;;;;8.40;5.18;;;;;;;15.18;35.80;98064.66;5134754;27;20030;-26
2022/03/20 02:55:02;;;;;;;7.30;5.05;;;;;;;15.23;35.67;98064.94;5134694;27;20026;-26
2022/03/20 02:57:32;;;;;;;7.13;5.00;;;;;;;15.23;35.92;98078.59;5134825;27;20063;-26
2022/03/20 03:00:00;;;;;;;9.02;5.57;;;;;;;15.11;36.08;98068.25;5133763;27;20039;-26
2022/03/20 03:02:30;;;;;;;7.28;4.93;;;;;;;15.18;35.72;98068.16;5134743;27;20023;-26
2022/03/20 03:04:59;;;;;;;5.93;4.72;;;;;;;15.20;35.63;98071.25;5134802;27;20019;-26
2022/03/20 03:07:32;;;;;;;7.20;4.72;;;;;;;15.18;35.34;98070.91;5134625;27;20098;-26
2022/03/20 03:12:43;;;;;;;7.57;5.40;;;;;;;15.19;34.99;98069.72;5134838;27;20528;-26
2022/03/20 03:15:21;;;;;;;6.82;4.90;;;;;;;15.24;35.16;98068.44;5134512;27;20439;-26
2022/03/20 03:17:50;;;;;;;8.40;5.70;;;;;;;15.21;35.05;98066.53;5116353;27;20110;-26
2022/03/20 03:20:19;;;;;;;6.40;5.20;;;;;;;15.19;35.20;98069.72;5115802;27;20023;-26
2022/03/20 03:22:46;;;;;;;8.05;5.22;;;;;;;15.26;34.93;98066.06;5134842;27;20072;-26
2022/03/20 03:25:12;;;;;;;6.78;4.80;;;;;;;15.18;34.93;98081.81;5134330;27;20030;-25
2022/03/20 03:27:37;;;;;;;6.75;4.50;;;;;;;15.20;34.76;98075.94;5134524;27;20019;-26
2022/03/20 03:30:04;;;;;;;6.30;4.75;;;;;;;15.19;34.86;98077.91;5134390;27;20075;-26
2022/03/20 03:32:30;;;;;;;5.80;4.45;;;;;;;15.18;34.63;98073.63;5134517;27;20050;-26
2022/03/20 03:37:40;;;;;;;7.53;5.03;;;;;;;15.24;34.55;98082.88;5134526;27;20058;-26
2022/03/20 03:40:07;;;;;;;8.25;4.90;;;;;;;15.17;34.48;98084.97;5134352;27;20459;-26
2022/03/20 03:42:34;;;;;;;6.13;4.55;;;;;;;15.14;34.40;98083.84;5133934;27;20030;-26
2022/03/20 03:45:01;;;;;;;7.03;4.88;;;;;;;15.14;34.91;98080.34;5134185;27;20023;-26
2022/03/20 03:47:28;;;;;;;7.57;4.60;;;;;;;15.17;34.41;98082.25;5116093;28;20022;-26
2022/03/20 03:49:54;;;;;;;7.00;4.97;;;;;;;15.21;34.43;98088.41;5134144;27;20424;-26
2022/03/20 03:52:20;;;;;;;7.53;4.68;;;;;;;15.25;34.16;98091.84;5133950;27;20019;-26
2022/03/20 03:54:46;;;;;;;6.22;4.85;;;;;;;15.09;35.05;98089.75;5115728;28;20539;-26
2022/03/20 03:57:12;;;;;;;6.70;4.60;;;;;;;15.09;34.79;98092.50;5133972;27;20051;-26
2022/03/20 03:59:38;;;;;;;6.60;4.95;;;;;;;15.15;34.17;98096.31;5134086;27;20483;-26
2022/03/20 04:02:04;;;;;;;8.05;4.45;;;;;;;15.13;34.34;98095.97;5115540;27;20073;-26
2022/03/20 04:04:30;;;;;;;6.18;4.35;;;;;;;15.10;33.83;98091.31;5133935;27;20047;-26
2022/03/20 04:06:56;;;;;;;7.45;4.72;;;;;;;15.13;33.60;98095.19;5133943;27;20073;-26
2022/03/20 04:09:22;;;;;;;5.50;4.15;;;;;;;15.19;34.11;98097.03;5115591;28;20031;-26
2022/03/20 04:11:48;;;;;;;6.75;4.63;;;;;;;15.09;33.74;98104.19;5136033;27;20483;-26
2022/03/20 04:14:14;;;;;;;7.25;4.75;;;;;;;15.16;33.69;98097.88;5137805;27;20079;-26
2022/03/20 04:16:40;;;;;;;7.30;4.90;;;;;;;15.11;33.78;98101.06;5137738;27;20467;-26
2022/03/20 04:19:05;;;;;;;7.28;4.88;;;;;;;15.09;33.83;98103.44;5137999;27;20026;-26
2022/03/20 04:21:31;;;;;;;6.53;4.55;;;;;;;15.09;34.08;98108.91;5137886;27;20418;-26
2022/03/20 04:23:57;;;;;;;7.88;4.93;;;;;;;15.07;33.90;98109.34;5137621;27;20418;-26
2022/03/20 04:26:24;;;;;;;7.47;4.47;;;;;;;15.09;33.64;98106.94;5137894;27;20027;-26
2022/03/20 04:28:52;;;;;;;6.35;4.50;;;;;;;15.07;33.54;98106.59;5137586;27;20049;-26
2022/03/20 04:31:19;;;;;;;7.28;4.72;;;;;;;15.00;33.88;98105.94;5137527;27;20023;-26
2022/03/20 04:33:50;;;;;;;7.03;5.00;;;;;;;15.07;33.45;98105.81;5137504;27;20023;-26
2022/03/20 04:36:17;;;;;;;8.38;4.15;;;;;;;15.08;33.57;98107.38;5119093;27;20019;-26
2022/03/20 04:38:44;;;;;;;8.10;4.72;;;;;;;15.15;33.45;98106.47;5137512;27;20399;-26
2022/03/20 04:41:09;;;;;;;7.80;4.40;;;;;;;15.04;33.75;98112.13;5118940;27;20050;-26
2022/03/20 04:43:35;;;;;;;6.18;4.88;;;;;;;15.08;33.06;98110.84;5118997;27;20023;-26
2022/03/20 04:46:01;;;;;;;7.93;4.20;;;;;;;15.12;33.44;98112.75;5137380;27;20019;-26
2022/03/20 04:59:22;;;;;;;6.53;4.53;;;;;;;15.04;33.56;98118.34;5136842;27;20085;-26
2022/03/20 05:01:48;;;;;;;6.38;3.95;;;;;;;15.09;32.87;98123.31;5137284;27;20059;-26
2022/03/20 05:04:14;;;;;;;5.28;4.07;;;;;;;15.04;32.74;98115.63;5136891;27;20027;-26
2022/03/20 05:06:40;;;;;;;5.82;3.90;;;;;;;14.93;33.33;98123.22;5136831;27;20042;-26
2022/03/20 05:14:34;;;;;;;5.60;3.92;;;;;;;15.05;32.72;98124.59;5137073;27;20029;-26
2022/03/20 05:17:00;;;;;;;6.15;4.05;;;;;;;14.96;32.90;98124.34;5136720;27;20015;-26
2022/03/20 05:19:26;;;;;;;5.65;3.92;;;;;;;15.01;32.19;98135.56;5136679;27;20106;-26
2022/03/20 05:21:52;;;;;;;6.35;4.40;;;;;;;15.00;32.45;98133.25;5136474;27;20457;-26
2022/03/20 05:24:17;;;;;;;6.07;4.00;;;;;;;15.02;32.72;98142.59;5135774;27;20076;-26
2022/03/20 05:26:44;;;;;;;6.95;4.53;;;;;;;15.05;31.97;98132.78;5136362;27;20027;-26
2022/03/20 05:29:09;;;;;;;6.03;4.40;;;;;;;15.03;32.68;98137.88;5136501;27;20023;-26
2022/03/20 05:31:35;;;;;;;6.32;4.30;;;;;;;14.99;32.05;98142.63;5118272;27;20030;-26
2022/03/20 05:34:01;;;;;;;6.05;3.92;;;;;;;14.99;32.48;98143.41;5136551;27;20048;-26
2022/03/20 05:36:29;;;;;;;6.97;4.20;;;;;;;15.00;32.62;98141.44;5136283;27;20105;-26
2022/03/20 05:38:59;;;;;;;6.97;4.70;;;;;;;14.97;32.58;98140.31;5136531;27;20015;-26
2022/03/20 05:44:11;;;;;;;8.48;4.70;;;;;;;15.02;32.35;98147.28;5136196;27;20042;-26
2022/03/20 05:46:40;;;;;;;6.43;4.22;;;;;;;14.99;32.57;98150.81;5136245;27;20494;-26
2022/03/20 05:49:07;;;;;;;6.65;4.18;;;;;;;14.97;32.71;98151.22;5136023;27;20031;-26
2022/03/20 05:51:34;;;;;;;7.18;3.85;;;;;;;14.91;32.74;98146.66;5135980;27;20026;-26
2022/03/20 05:54:00;;;;;;;5.88;4.03;;;;;;;14.94;32.15;98152.09;5135848;27;20019;-25
2022/03/20 05:59:11;;;;;;;7.57;3.80;;;;;;;14.99;32.59;98161.75;5135911;27;20046;-26
2022/03/20 06:01:36;;;;;;;8.18;3.95;;;;;;;15.10;32.37;98163.13;5135792;27;20455;-26
2022/03/20 06:04:03;;;;;;;6.22;3.97;;;;;;;15.06;31.71;98169.84;5122165;27;20046;-26
2022/03/20 06:06:29;;;;;;;6.32;3.67;;;;;;;15.05;32.27;98173.78;5133908;27;20211;-27
2022/03/20 06:08:55;;;;;;;5.50;3.70;;;;;;;14.95;32.16;98169.25;5123947;27;20372;-26
2022/03/20 06:11:21;;;;;;;5.63;4.03;;;;;;;14.97;31.69;98175.03;5113116;28;20023;-26
2022/03/20 06:13:48;;;;;;;5.05;3.53;;;;;;;14.95;32.19;98175.50;5113020;28;20457;-26
2022/03/20 06:16:17;;;;;;;7.25;4.00;;;;;;;14.99;32.04;98175.41;5111203;28;20031;-26
2022/03/20 06:18:43;;;;;;;6.40;3.97;;;;;;;14.97;32.31;98180.50;5113309;28;20030;-26
2022/03/20 06:21:10;;;;;;;7.13;3.85;;;;;;;14.91;32.17;98184.91;5123015;27;20134;-26
2022/03/20 06:23:35;;;;;;;4.70;3.60;;;;;;;15.02;31.62;98189.03;5133294;27;20047;-26
2022/03/20 06:26:01;;;;;;;5.22;3.50;;;;;;;14.96;31.77;98181.72;5133504;27;20490;-26
2022/03/20 06:28:27;;;;;;;5.05;3.63;;;;;;;14.94;32.09;98187.59;5133132;27;20072;-26
2022/03/20 06:30:53;;;;;;;5.45;3.50;;;;;;;15.02;31.76;98188.25;5133278;27;20030;-26
2022/03/20 06:33:19;;;;;;;5.35;3.03;;;;;;;15.00;31.88;98193.34;5114767;27;20417;-26
2022/03/20 06:35:44;;;;;;;5.57;3.33;;;;;;;14.93;31.88;98188.00;5133143;27;20110;-26
2022/03/20 06:38:10;;;;;;;5.13;3.85;;;;;;;14.97;32.07;98191.44;5133095;27;20066;-26
2022/03/20 06:40:35;;;;;;;5.65;3.70;;;;;;;14.96;31.88;98195.38;5132848;27;20023;-26
2022/03/20 06:43:01;;;;;;;4.00;3.33;;;;;;;14.90;31.89;98195.06;5133106;27;20027;-26
2022/03/20 06:45:27;;;;;;;6.13;3.88;;;;;;;14.96;31.93;98193.41;5133037;27;20053;-26
2022/03/20 06:47:52;;;;;;;5.65;3.47;;;;;;;14.98;31.85;98190.25;5133103;27;20030;-26
2022/03/20 06:50:18;;;;;;;6.47;3.90;;;;;;;15.00;31.69;98198.81;5132782;27;20027;-26
2022/03/20 06:52:44;;;;;;;6.78;4.50;;;;;;;15.00;31.64;98198.81;5132940;27;20023;-26
2022/03/20 06:55:13;;;;;;;8.02;4.38;;;;;;;14.93;31.74;98199.72;5132996;27;20042;-26
2022/03/20 06:57:43;;;;;;;10.02;5.50;;;;;;;15.00;31.73;98205.06;5122807;27;20031;-26
2022/03/20 07:00:10;;;;;;;10.02;5.85;;;;;;;14.96;31.73;98209.03;5111937;28;20130;-26
2022/03/20 07:02:36;;;;;;;12.10;6.88;;;;;;;14.95;31.63;98207.50;5093519;28;20391;-26
2022/03/20 07:05:03;;;;;;;11.30;6.20;;;;;;;14.98;31.84;98206.66;5112071;28;20100;-26
2022/03/20 07:07:29;;;;;;;11.00;6.60;;;;;;;14.90;31.84;98213.41;5112072;28;20055;-26
2022/03/20 07:09:54;;;;;;;13.25;6.47;;;;;;;15.02;31.86;98215.56;5112205;28;20464;-26
2022/03/20 07:12:20;;;;;;;9.77;5.88;;;;;;;15.01;31.66;98223.00;5112070;28;20020;-26
2022/03/20 07:14:46;;;;;;;10.50;6.15;;;;;;;14.97;31.90;98218.75;5111724;28;20027;-26
2022/03/20 07:17:13;;;;;;;9.48;5.50;;;;;;;15.00;31.53;98220.69;5110429;28;20031;-26
2022/03/20 07:19:44;;;;;;;10.27;5.70;;;;;;;14.98;31.59;98232.00;5111537;28;20031;-26
2022/03/20 07:22:12;;;;;;;11.43;5.40;;;;;;;14.87;32.03;98228.66;5111819;28;20528;-26
2022/03/20 07:24:42;;;;;;;7.80;5.00;;;;;;;14.97;31.58;98235.16;5112013;28;20036;-26
2022/03/20 07:29:57;;;;;;;8.48;4.57;;;;;;;14.84;31.77;98245.09;5111895;28;20030;-26
2022/03/20 07:32:23;;;;;;;7.72;4.82;;;;;;;14.93;31.65;98237.19;5093483;28;20047;-26
2022/03/20 07:34:49;;;;;;;7.53;4.80;;;;;;;15.00;31.76;98239.81;5111917;28;20139;-26
2022/03/20 07:37:17;;;;;;;8.93;4.95;;;;;;;14.91;31.50;98239.53;5111924;28;20115;-26
2022/03/20 07:39:48;;;;;;;8.18;4.45;;;;;;;15.05;31.36;98240.13;5112225;28;20106;-26
2022/03/20 07:42:14;;;;;;;7.35;4.18;;;;;;;14.87;31.72;98241.53;5132284;28;20062;-26
2022/03/20 07:44:40;;;;;;;7.05;4.43;;;;;;;14.86;31.59;98243.50;5132412;28;20406;-26
2022/03/20 07:47:08;;;;;;;7.03;4.18;;;;;;;14.85;31.69;98250.13;5116403;27;20042;-26
2022/03/20 07:49:37;;;;;;;6.15;4.03;;;;;;;14.88;31.57;98252.06;5136561;27;20076;-26
2022/03/20 07:52:06;;;;;;;6.75;4.20;;;;;;;14.88;31.53;98254.03;5135877;27;20628;-26
2022/03/20 07:54:32;;;;;;;6.63;4.00;;;;;;;14.80;31.45;98247.09;5136159;27;20073;-26
2022/03/20 07:56:58;;;;;;;6.35;4.10;;;;;;;14.94;31.20;98244.97;5131724;27;20490;-26
2022/03/20 07:59:24;;;;;;;7.93;3.65;;;;;;;14.93;31.68;98253.56;5107057;27;20047;-26
2022/03/20 08:01:50;;;;;;;4.93;3.50;;;;;;;14.87;31.66;98244.28;5136360;27;20043;-26
2022/03/20 08:04:16;;;;;;;5.80;3.55;;;;;;;14.63;31.58;98248.88;5135990;27;20459;-26
2022/03/20 08:06:42;;;;;;;6.20;3.78;;;;;;;14.84;31.32;98245.09;5136058;27;20019;-26
2022/03/20 08:09:08;;;;;;;5.72;3.45;;;;;;;14.63;31.38;98251.59;5135840;27;20057;-26
2022/03/20 08:11:33;;;;;;;6.63;3.28;;;;;;;14.32;31.60;98253.50;5135852;27;20030;-27
2022/03/20 08:13:59;;;;;;;6.75;3.72;;;;;;;14.64;31.12;98245.72;5135967;27;20475;-26
2022/03/20 08:16:29;;;;;;;4.97;2.88;;;;;;;14.69;30.84;98250.75;5134015;27;20029;-26
2022/03/20 08:18:56;;;;;;;5.28;3.25;;;;;;;14.69;31.30;98249.97;5135622;27;20490;-26
2022/03/20 08:21:22;;;;;;;6.82;3.58;;;;;;;14.77;30.84;98256.13;5135793;27;20376;-26
2022/03/20 08:23:48;;;;;;;6.07;3.78;;;;;;;14.88;30.65;98256.75;5135542;27;20038;-26
2022/03/20 08:26:14;;;;;;;5.40;3.08;;;;;;;14.85;30.95;98254.81;5135947;27;20110;-26
2022/03/20 08:28:42;;;;;;;4.65;3.00;;;;;;;14.67;30.92;98244.91;5135551;27;20039;-26
2022/03/20 08:31:08;;;;;;;7.10;3.30;;;;;;;14.77;31.02;98250.66;5135768;27;20030;-27
2022/03/20 08:33:35;;;;;;;5.85;3.28;;;;;;;14.67;30.81;98252.34;5135174;27;20027;-26
2022/03/20 08:36:01;;;;;;;5.28;2.97;;;;;;;14.62;31.04;98259.03;5116967;27;20031;-26
2022/03/20 08:38:27;;;;;;;5.25;3.30;;;;;;;14.67;30.49;98257.81;5116898;27;20029;-26
2022/03/20 08:40:53;;;;;;;5.35;3.30;;;;;;;14.72;30.60;98254.59;5135458;27;20023;-26
2022/03/20 08:43:19;;;;;;;5.13;3.30;;;;;;;14.79;30.63;98256.47;5116743;27;20031;-26
2022/03/20 08:45:44;;;;;;;6.78;3.80;;;;;;;14.62;28.95;98255.50;5113323;27;20063;-26
2022/03/20 08:51:32;;;;;;;6.80;3.58;;;;;;;14.36;30.37;98267.88;5136932;27;20387;-26
2022/03/20 08:53:59;;;;;;;5.20;3.60;;;;;;;14.65;31.01;98260.94;5137791;27;20379;-26
2022/03/20 08:56:25;;;;;;;6.20;3.67;;;;;;;14.73;30.56;98256.94;5136706;27;20015;-26
2022/03/20 08:58:51;;;;;;;5.45;3.65;;;;;;;14.62;30.55;98261.75;5117153;27;20030;-26
2022/03/20 09:01:17;;;;;;;4.82;3.10;;;;;;;14.65;30.91;98260.16;5136870;27;20122;-26
2022/03/20 09:03:44;;;;;;;5.60;3.40;;;;;;;14.67;30.67;98255.84;5136840;27;20024;-26
2022/03/20 09:06:10;;;;;;;6.72;3.33;;;;;;;14.63;30.51;98257.84;5137003;27;20022;-25
2022/03/20 09:08:36;;;;;;;4.38;3.08;;;;;;;14.89;30.57;98252.84;5136879;27;20047;-26
2022/03/20 09:11:02;;;;;;;5.68;3.17;;;;;;;14.79;30.70;98253.75;5136826;27;20027;-26
2022/03/20 09:13:28;;;;;;;6.70;3.40;;;;;;;14.81;30.20;98256.84;5136851;27;20019;-26
2022/03/20 09:18:59;;;;;;;4.93;3.22;;;;;;;14.77;30.45;98254.16;5137014;27;20023;-26
2022/03/20 09:21:23;;;;;;;5.60;3.22;;;;;;;14.87;29.89;98260.66;5136769;27;20027;-26
2022/03/20 09:23:49;;;;;;;4.60;2.95;;;;;;;14.89;30.06;98264.53;5118022;27;20035;-26
2022/03/20 09:26:15;;;;;;;5.22;3.30;;;;;;;14.72;29.78;98260.06;5136625;27;20037;-26
2022/03/20 09:28:40;;;;;;;4.95;3.40;;;;;;;14.87;29.71;98257.94;5136642;27;20023;-26
2022/03/20 09:31:08;;;;;;;4.85;3.25;;;;;;;14.69;29.83;98258.16;5118142;27;20019;-26
2022/03/20 09:33:34;;;;;;;6.57;3.45;;;;;;;14.48;30.42;98266.59;5136263;27;20030;-26
2022/03/20 09:36:00;;;;;;;6.38;3.50;;;;;;;14.49;29.74;98263.47;5136417;27;20029;-26
2022/03/20 09:38:26;;;;;;;4.20;3.22;;;;;;;14.54;28.53;98264.97;5136339;27;20106;-26
2022/03/20 09:40:52;;;;;;;4.97;2.90;;;;;;;14.62;27.71;98263.69;5136276;27;20135;-26
2022/03/20 09:43:18;;;;;;;4.63;3.05;;;;;;;14.59;29.07;98268.00;5136194;27;20027;-26
2022/03/20 09:45:44;;;;;;;5.38;3.22;;;;;;;14.54;28.81;98265.75;5136152;27;20027;-26
2022/03/20 09:48:12;;;;;;;6.93;3.35;;;;;;;14.65;29.94;98269.13;5136024;27;20099;-26
2022/03/20 09:50:39;;;;;;;4.18;3.10;;;;;;;14.48;28.86;98267.38;5136058;27;20523;-26
2022/03/20 09:53:05;;;;;;;3.83;2.85;;;;;;;14.38;27.93;98262.78;5136128;27;20536;-28
2022/03/20 09:55:31;;;;;;;5.35;3.08;;;;;;;14.40;28.58;98265.91;5135957;27;20027;-26
2022/03/20 09:57:57;;;;;;;10.35;3.25;;;;;;;14.63;29.75;98263.28;5136020;27;20500;-26
2022/03/20 10:00:25;;;;;;;4.80;2.97;;;;;;;14.57;29.16;98266.91;5135565;27;20048;-26
2022/03/20 10:02:51;;;;;;;5.90;3.38;;;;;;;14.49;28.96;98266.19;5135791;27;20019;-26
2022/03/20 10:05:21;;;;;;;3.63;2.75;;;;;;;14.56;28.71;98260.66;5135832;27;20394;-26
2022/03/20 10:07:47;;;;;;;7.00;3.22;;;;;;;14.42;27.64;98263.56;5135809;27;20030;-26
2022/03/20 10:10:29;;;;;;;3.72;2.85;;;;;;;14.42;28.72;98271.75;5134655;27;20027;-26
2022/03/20 10:12:59;;;;;;;4.80;2.90;;;;;;;14.80;30.61;98263.50;5135074;27;20016;-26
2022/03/20 10:15:33;;;;;;;4.63;2.92;;;;;;;14.70;28.68;98262.44;5130054;27;20030;-26
2022/03/20 10:18:24;;;;;;;5.40;3.15;;;;;;;14.78;30.08;98260.41;5135400;27;20049;-26
2022/03/20 10:21:00;;;;;;;6.47;2.90;;;;;;;14.76;30.39;98260.81;5130098;27;20451;-26
2022/03/20 10:23:33;;;;;;;5.05;2.50;;;;;;;14.96;30.70;98266.41;5135323;27;20019;-26
2022/03/20 10:26:03;;;;;;;5.53;2.80;;;;;;;14.90;29.01;98260.63;5115400;27;20065;-26
2022/03/20 10:28:35;;;;;;;3.58;2.63;;;;;;;14.94;30.59;98266.81;5114851;28;20035;-26
2022/03/20 10:31:03;;;;;;;4.20;2.80;;;;;;;14.97;30.52;98265.22;5114854;28;20024;-26
2022/03/20 10:33:29;;;;;;;5.82;2.90;;;;;;;14.87;27.64;98266.13;5096657;28;20027;-26
2022/03/20 10:36:11;;;;;;;4.25;2.50;;;;;;;14.94;30.38;98260.59;5114476;28;20486;-25
2022/03/20 10:38:38;;;;;;;6.50;3.35;;;;;;;14.97;30.63;98265.97;5122208;27;20019;-25
2022/03/20 10:41:26;;;;;;;4.00;2.53;;;;;;;15.00;30.61;98270.63;5128190;27;20027;-26
2022/03/20 10:43:54;;;;;;;4.68;2.83;;;;;;;15.08;30.50;98274.06;5134880;27;20019;-26
2022/03/20 10:46:25;;;;;;;4.95;3.42;;;;;;;15.04;30.57;98279.56;5132107;27;20031;-26
2022/03/20 10:48:53;;;;;;;4.57;2.90;;;;;;;15.09;30.39;98267.38;5132709;27;20050;-26
2022/03/20 10:51:59;;;;;;;4.82;2.80;;;;;;;15.04;30.52;98270.59;5114385;27;20098;-26
2022/03/20 10:54:40;;;;;;;4.10;2.85;;;;;;;15.06;30.49;98258.06;5112473;28;20027;-26
2022/03/20 10:57:06;;;;;;;3.72;2.50;;;;;;;15.08;30.75;98263.88;5126092;27;20023;-26
2022/03/20 10:59:33;;;;;;;3.92;2.83;;;;;;;15.05;30.49;98264.72;5132273;27;20043;-26
2022/03/20 11:01:59;;;;;;;5.55;2.83;;;;;;;15.10;30.25;98260.72;5114312;27;20058;-26
2022/03/20 11:04:25;;;;;;;2.72;2.40;;;;;;;15.15;30.56;98268.47;5132859;27;20030;-26
2022/03/20 11:06:59;;;;;;;3.53;2.67;;;;;;;15.11;30.61;98265.00;5132757;27;20084;-26
2022/03/20 11:09:25;;;;;;;3.33;2.60;;;;;;;15.00;30.44;98265.16;5132568;27;20033;-26
2022/03/20 11:11:57;;;;;;;5.32;2.70;;;;;;;15.02;30.52;98253.84;5130483;27;20027;-26
2022/03/20 11:14:24;;;;;;;4.45;2.83;;;;;;;15.03;30.49;98252.66;5131858;27;20027;-26
2022/03/20 11:17:13;;;;;;;4.40;3.05;;;;;;;15.08;30.50;98255.69;5132198;27;20084;-26
2022/03/20 11:19:43;;;;;;;3.72;2.60;;;;;;;15.03;27.35;98247.97;5132203;27;20058;-26
2022/03/20 11:22:12;;;;;;;5.38;2.60;;;;;;;15.04;30.17;98246.00;5131340;27;20055;-26
2022/03/20 11:24:41;;;;;;;4.63;2.95;;;;;;;15.04;30.17;98243.28;5131864;27;20035;-26
2022/03/20 11:27:11;;;;;;;3.88;2.80;;;;;;;15.12;30.36;98244.72;5132396;27;20030;-26
2022/03/20 11:30:01;;;;;;;3.78;2.70;;;;;;;15.04;30.33;98240.53;5132533;27;20407;-26
2022/03/20 11:32:27;;;;;;;3.60;2.50;;;;;;;15.08;30.30;98227.59;5113963;28;20101;-26
2022/03/20 11:34:53;;;;;;;5.03;2.72;;;;;;;15.15;30.42;98232.97;5132187;27;20055;-26
2022/03/20 11:37:19;;;;;;;4.15;2.47;;;;;;;15.08;30.60;98235.81;5132101;27;20421;-26
2022/03/20 11:40:11;;;;;;;4.15;2.60;;;;;;;15.04;30.66;98235.06;5131725;27;20031;-26
2022/03/20 11:42:38;;;;;;;4.97;2.92;;;;;;;15.13;30.16;98218.94;5132019;27;20403;-26
2022/03/20 11:45:04;;;;;;;3.67;2.30;;;;;;;15.06;30.07;98227.25;5132277;27;20031;-26
2022/03/20 11:47:34;;;;;;;4.38;3.03;;;;;;;15.12;29.90;98230.28;5131963;27;20027;-26
2022/03/20 11:50:15;;;;;;;3.72;2.65;;;;;;;15.14;29.90;98231.41;5131871;27;20030;-27
2022/03/20 11:52:55;;;;;;;4.05;2.60;;;;;;;15.15;29.66;98229.44;5132153;27;20023;-26
2022/03/20 11:55:24;;;;;;;3.80;2.63;;;;;;;15.11;29.77;98221.28;5113714;27;20025;-26
2022/03/20 11:57:50;;;;;;;3.67;2.55;;;;;;;15.21;29.92;98214.88;5113200;28;20027;-26
2022/03/20 12:00:19;;;;;;;3.50;2.47;;;;;;;15.18;29.72;98215.75;5131885;27;20042;-25
2022/03/20 12:02:58;;;;;;;5.03;2.60;;;;;;;15.10;29.86;98211.56;5132009;27;20100;-26
2022/03/20 12:05:32;;;;;;;3.28;2.50;;;;;;;15.16;29.54;98207.19;5113587;27;20491;-26
2022/03/20 12:08:34;;;;;;;3.72;2.60;;;;;;;15.10;29.34;98203.34;5131891;27;20080;-26
2022/03/20 12:11:18;;;;;;;3.40;2.47;;;;;;;15.10;29.08;98203.34;5131962;27;20019;-26